Time,TemperatureF,DewpointF,PressureIn,WindDirection,WindDirectionDegrees,WindSpeedMPH,WindSpeedGustMPH,Humidity,HourlyPrecipIn,Conditions,Clouds,dailyrainin,SoftwareType,DateUTC
2013-10-30 00:04:00,22.9,19.0,30.34,NE,44,0.0,0.0,84,0.00,,,0.02,weatherlink.com 1.10,2013-10-30 04:04:00,
2013-10-30 00:20:00,22.9,19.0,30.34,NE,44,0.0,0.0,84,0.00,,,0.00,weatherlink.com 1.10,2013-10-30 04:20:00,
2013-10-30 00:35:00,22.9,19.0,30.34,NE,44,0.0,0.0,84,0.00,,,0.00,weatherlink.com 1.10,2013-10-30 04:35:00,
2013-10-30 00:50:00,22.8,19.0,30.34,NE,44,0.0,0.0,84,0.00,,,0.00,weatherlink.com 1.10,2013-10-30 04:50:00,
2013-10-30 01:05:00,22.4,18.0,30.33,NE,44,0.0,0.0,84,0.00,,,0.00,weatherlink.com 1.10,2013-10-30 05:05:00,
2013-10-30 01:20:00,22.1,18.0,30.33,NE,44,0.0,0.0,85,0.00,,,0.00,weatherlink.com 1.10,2013-10-30 05:20:00,
2013-10-30 01:35:00,21.8,18.0,30.32,NE,44,0.0,0.0,85,0.00,,,0.00,weatherlink.com 1.10,2013-10-30 05:35:00,
2013-10-30 01:50:00,21.9,18.0,30.32,NE,44,0.0,0.0,85,0.00,,,0.00,weatherlink.com 1.10,2013-10-30 05:50:00,
2013-10-30 02:05:00,22.1,19.0,30.32,NE,44,0.0,0.0,86,0.00,,,0.00,weatherlink.com 1.10,2013-10-30 06:05:00,
2013-10-30 02:20:00,22.5,19.0,30.31,NE,44,0.0,0.0,86,0.00,,,0.00,weatherlink.com 1.10,2013-10-30 06:20:00,
2013-10-30 02:35:00,23.1,20.0,30.32,NE,44,0.0,0.0,86,0.00,,,0.00,weatherlink.com 1.10,2013-10-30 06:35:00,
2013-10-30 02:50:00,23.6,20.0,30.31,NE,44,0.0,0.0,85,0.00,,,0.00,weatherlink.com 1.10,2013-10-30 06:50:00,
2013-10-30 03:05:00,23.9,20.0,30.31,NE,44,0.0,0.0,85,0.00,,,0.00,weatherlink.com 1.10,2013-10-30 07:05:00,
2013-10-30 03:20:00,24.3,20.0,30.30,NE,44,0.0,0.0,85,0.00,,,0.00,weatherlink.com 1.10,2013-10-30 07:20:00,
2013-10-30 03:35:00,24.5,20.0,30.30,NE,44,0.0,0.0,84,0.00,,,0.00,weatherlink.com 1.10,2013-10-30 07:35:00,
2013-10-30 03:50:00,24.7,21.0,30.29,NE,44,0.0,0.0,84,0.00,,,0.00,weatherlink.com 1.10,2013-10-30 07:50:00,
2013-10-30 04:05:00,24.9,21.0,30.29,NE,44,0.0,0.0,85,0.00,,,0.00,weatherlink.com 1.10,2013-10-30 08:05:00,
2013-10-30 04:20:00,25.0,21.0,30.28,NE,44,0.0,0.0,85,0.00,,,0.00,weatherlink.com 1.10,2013-10-30 08:20:00,
2013-10-30 04:35:00,25.1,21.0,30.28,NE,44,0.0,0.0,84,0.00,,,0.00,weatherlink.com 1.10,2013-10-30 08:35:00,
2013-10-30 04:50:00,25.3,21.0,30.28,NE,44,0.0,0.0,84,0.00,,,0.00,weatherlink.com 1.10,2013-10-30 08:50:00,
2013-10-30 05:05:00,25.6,21.0,30.28,NE,44,0.0,0.0,83,0.00,,,0.00,weatherlink.com 1.10,2013-10-30 09:05:00,
2013-10-30 05:20:00,25.8,21.0,30.28,NE,44,0.0,0.0,82,0.00,,,0.00,weatherlink.com 1.10,2013-10-30 09:20:00,
2013-10-30 05:35:00,26.0,21.0,30.28,NE,44,0.0,0.0,82,0.00,,,0.00,weatherlink.com 1.10,2013-10-30 09:35:00,
2013-10-30 05:50:00,26.2,22.0,30.27,NE,44,0.0,0.0,84,0.00,,,0.00,weatherlink.com 1.10,2013-10-30 09:50:00,
2013-10-30 06:05:00,26.3,22.0,30.28,NE,44,0.0,0.0,84,0.00,,,0.00,weatherlink.com 1.10,2013-10-30 10:05:00,
2013-10-30 06:20:00,26.2,22.0,30.27,NE,44,0.0,0.0,83,0.00,,,0.00,weatherlink.com 1.10,2013-10-30 10:20:00,
2013-10-30 06:35:00,26.2,22.0,30.27,NE,44,0.0,0.0,84,0.00,,,0.00,weatherlink.com 1.10,2013-10-30 10:35:00,
2013-10-30 06:50:00,26.2,22.0,30.27,NE,44,0.0,0.0,84,0.00,,,0.00,weatherlink.com 1.10,2013-10-30 10:50:00,
2013-10-30 07:05:00,26.3,22.0,30.27,NE,44,0.0,0.0,84,0.00,,,0.00,weatherlink.com 1.10,2013-10-30 11:05:00,
2013-10-30 07:20:00,26.6,22.0,30.27,NE,44,0.0,0.0,84,0.00,,,0.00,weatherlink.com 1.10,2013-10-30 11:20:00,
2013-10-30 07:35:00,26.9,22.0,30.27,NE,44,0.0,0.0,83,0.00,,,0.00,weatherlink.com 1.10,2013-10-30 11:35:00,
2013-10-30 07:50:00,27.0,23.0,30.27,NE,44,0.0,0.0,83,0.00,,,0.00,weatherlink.com 1.10,2013-10-30 11:50:00,
2013-10-30 08:05:00,27.3,23.0,30.27,NE,44,0.0,0.0,83,0.00,,,0.00,weatherlink.com 1.10,2013-10-30 12:05:00,
2013-10-30 08:20:00,27.6,23.0,30.27,NE,44,0.0,0.0,81,0.00,,,0.00,weatherlink.com 1.10,2013-10-30 12:20:00,
2013-10-30 08:35:00,28.1,23.0,30.27,NE,44,0.0,0.0,81,0.00,,,0.00,weatherlink.com 1.10,2013-10-30 12:35:00,
2013-10-30 08:50:00,28.4,23.0,30.27,NE,44,0.0,0.0,80,0.00,,,0.00,weatherlink.com 1.10,2013-10-30 12:50:00,
2013-10-30 09:05:00,28.7,24.0,30.26,NE,44,0.0,0.0,81,0.00,,,0.00,weatherlink.com 1.10,2013-10-30 13:05:00,
2013-10-30 09:21:00,29.0,24.0,30.26,NE,44,0.0,0.0,80,0.00,,,0.00,weatherlink.com 1.10,2013-10-30 13:21:00,
2013-10-30 09:36:00,30.0,25.0,30.26,NE,44,0.0,0.0,80,0.00,,,0.00,weatherlink.com 1.10,2013-10-30 13:36:00,
2013-10-30 09:51:00,31.6,25.0,30.26,NE,34,0.0,2.0,77,0.00,,,0.00,weatherlink.com 1.10,2013-10-30 13:51:00,
2013-10-30 10:06:00,31.6,25.0,30.25,NE,34,0.0,2.0,77,0.00,,,0.00,weatherlink.com 1.10,2013-10-30 14:06:00,
2013-10-30 10:21:00,32.1,25.0,30.24,NE,34,0.0,0.0,75,0.00,,,0.00,weatherlink.com 1.10,2013-10-30 14:21:00,
2013-10-30 10:36:00,34.2,26.0,30.25,NNE,24,2.0,4.0,71,0.00,,,0.00,weatherlink.com 1.10,2013-10-30 14:36:00,
2013-10-30 10:51:00,35.4,25.0,30.23,NE,38,0.0,2.0,66,0.00,,,0.00,weatherlink.com 1.10,2013-10-30 14:51:00,
2013-10-30 11:06:00,37.5,25.0,30.23,North,5,0.0,0.0,62,0.00,,,0.00,weatherlink.com 1.10,2013-10-30 15:06:00,
2013-10-30 11:21:00,40.7,26.0,30.23,South,184,0.0,5.0,56,0.00,,,0.00,weatherlink.com 1.10,2013-10-30 15:21:00,
2013-10-30 11:36:00,42.7,26.0,30.22,SSW,207,4.0,7.0,52,0.01,,,0.01,weatherlink.com 1.10,2013-10-30 15:36:00,
2013-10-30 11:51:00,43.1,26.0,30.22,SW,221,0.0,8.0,51,0.01,,,0.01,weatherlink.com 1.10,2013-10-30 15:51:00,
2013-10-30 12:06:00,44.6,27.0,30.21,SW,228,3.0,8.0,50,0.01,,,0.01,weatherlink.com 1.10,2013-10-30 16:06:00,
2013-10-30 12:21:00,45.5,27.0,30.20,SW,234,3.0,6.0,48,0.01,,,0.01,weatherlink.com 1.10,2013-10-30 16:21:00,
2013-10-30 12:36:00,46.2,27.0,30.20,North,355,4.0,5.0,48,0.01,,,0.02,weatherlink.com 1.10,2013-10-30 16:36:00,
2013-10-30 12:51:00,46.3,27.0,30.19,South,179,3.0,7.0,48,0.02,,,0.03,weatherlink.com 1.10,2013-10-30 16:51:00,
2013-10-30 13:06:00,45.8,27.0,30.18,South,169,1.0,5.0,48,0.02,,,0.03,weatherlink.com 1.10,2013-10-30 17:06:00,
2013-10-30 13:21:00,46.7,28.0,30.17,WSW,252,1.0,8.0,49,0.02,,,0.03,weatherlink.com 1.10,2013-10-30 17:21:00,
2013-10-30 13:51:00,45.6,28.0,30.18,WNW,296,0.0,7.0,50,0.01,,,0.04,weatherlink.com 1.10,2013-10-30 17:51:00,
2013-10-30 14:06:00,45.7,28.0,30.17,SW,217,1.0,5.0,51,0.01,,,0.04,weatherlink.com 1.10,2013-10-30 18:06:00,
2013-10-30 14:21:00,45.7,28.0,30.17,West,268,2.0,4.0,51,0.01,,,0.04,weatherlink.com 1.10,2013-10-30 18:21:00,
2013-10-30 14:37:00,45.8,29.0,30.17,WNW,284,0.0,4.0,52,0.01,,,0.05,weatherlink.com 1.10,2013-10-30 18:37:00,
2013-10-30 14:52:00,45.6,29.0,30.17,NW,322,0.0,6.0,52,0.01,,,0.05,weatherlink.com 1.10,2013-10-30 18:52:00,
2013-10-30 15:07:00,45.9,28.0,30.16,NNE,32,1.0,5.0,50,0.01,,,0.05,weatherlink.com 1.10,2013-10-30 19:07:00,
2013-10-30 15:22:00,46.0,29.0,30.16,NE,46,0.0,4.0,51,0.01,,,0.05,weatherlink.com 1.10,2013-10-30 19:22:00,
2013-10-30 15:37:00,45.7,28.0,30.16,NNE,26,3.0,9.0,51,0.00,,,0.05,weatherlink.com 1.10,2013-10-30 19:37:00,
2013-10-30 15:52:00,45.6,29.0,30.15,North,5,1.0,14.0,52,0.00,,,0.05,weatherlink.com 1.10,2013-10-30 19:52:00,
2013-10-30 16:52:00,44.8,29.0,30.16,WSW,247,0.0,5.0,54,0.00,,,0.05,weatherlink.com 1.10,2013-10-30 20:52:00,
2013-10-30 17:07:00,44.2,29.0,30.17,WSW,242,0.0,4.0,55,0.00,,,0.05,weatherlink.com 1.10,2013-10-30 21:07:00,
2013-10-30 17:37:00,41.8,29.0,30.17,WSW,242,0.0,0.0,60,0.00,,,0.05,weatherlink.com 1.10,2013-10-30 21:37:00,
2013-10-30 17:52:00,40.2,28.0,30.17,WSW,242,0.0,0.0,63,0.00,,,0.05,weatherlink.com 1.10,2013-10-30 21:52:00,
2013-10-30 18:07:00,38.8,28.0,30.17,WSW,242,0.0,0.0,66,0.00,,,0.05,weatherlink.com 1.10,2013-10-30 22:07:00,
2013-10-30 18:22:00,37.2,28.0,30.18,WSW,242,0.0,0.0,70,0.00,,,0.05,weatherlink.com 1.10,2013-10-30 22:22:00,
2013-10-30 18:37:00,36.2,28.0,30.18,WSW,242,0.0,0.0,72,0.01,,,0.06,weatherlink.com 1.10,2013-10-30 22:37:00,
2013-10-30 18:52:00,34.9,28.0,30.19,WSW,242,0.0,0.0,75,0.01,,,0.06,weatherlink.com 1.10,2013-10-30 22:52:00,
2013-10-30 19:07:00,34.5,27.0,30.19,WSW,240,0.0,2.0,75,0.01,,,0.06,weatherlink.com 1.10,2013-10-30 23:07:00,
2013-10-30 19:22:00,34.6,27.0,30.20,West,265,0.0,1.0,75,0.01,,,0.06,weatherlink.com 1.10,2013-10-30 23:22:00,
2013-10-30 19:37:00,33.9,27.0,30.20,West,265,0.0,1.0,77,0.00,,,0.06,weatherlink.com 1.10,2013-10-30 23:37:00,
2013-10-30 19:52:00,33.2,27.0,30.20,West,265,0.0,1.0,78,0.00,,,0.06,weatherlink.com 1.10,2013-10-30 23:52:00,
2013-10-30 20:07:00,33.7,28.0,30.21,West,263,0.0,0.0,78,0.00,,,0.06,weatherlink.com 1.10,2013-10-31 00:07:00,
2013-10-30 20:22:00,32.9,27.0,30.20,West,263,0.0,0.0,79,0.00,,,0.06,weatherlink.com 1.10,2013-10-31 00:22:00,
2013-10-30 20:37:00,32.0,27.0,30.21,West,263,0.0,0.0,80,0.00,,,0.06,weatherlink.com 1.10,2013-10-31 00:37:00,
2013-10-30 20:52:00,31.3,26.0,30.21,West,263,0.0,0.0,81,0.00,,,0.06,weatherlink.com 1.10,2013-10-31 00:52:00,
2013-10-30 21:07:00,30.6,26.0,30.21,West,263,0.0,0.0,82,0.00,,,0.06,weatherlink.com 1.10,2013-10-31 01:07:00,
2013-10-30 21:22:00,29.9,25.0,30.21,West,263,0.0,0.0,82,0.00,,,0.06,weatherlink.com 1.10,2013-10-31 01:22:00,
2013-10-30 21:37:00,29.3,25.0,30.20,West,263,0.0,0.0,83,0.00,,,0.06,weatherlink.com 1.10,2013-10-31 01:37:00,
2013-10-30 21:52:00,29.0,25.0,30.21,West,263,0.0,0.0,84,0.00,,,0.06,weatherlink.com 1.10,2013-10-31 01:52:00,
2013-10-30 22:07:00,28.6,24.0,30.20,West,263,0.0,0.0,84,0.00,,,0.06,weatherlink.com 1.10,2013-10-31 02:07:00,
2013-10-30 22:22:00,28.3,24.0,30.21,West,263,0.0,0.0,85,0.00,,,0.06,weatherlink.com 1.10,2013-10-31 02:22:00,
2013-10-30 22:37:00,28.1,24.0,30.20,West,263,0.0,0.0,85,0.00,,,0.06,weatherlink.com 1.10,2013-10-31 02:37:00,
2013-10-30 22:52:00,27.9,24.0,30.20,West,263,0.0,0.0,85,0.00,,,0.06,weatherlink.com 1.10,2013-10-31 02:52:00,
2013-10-30 23:07:00,27.8,24.0,30.20,West,263,0.0,0.0,86,0.00,,,0.06,weatherlink.com 1.10,2013-10-31 03:07:00,
2013-10-30 23:22:00,27.6,24.0,30.21,West,263,0.0,0.0,86,0.00,,,0.06,weatherlink.com 1.10,2013-10-31 03:22:00,
2013-10-30 23:37:00,27.6,24.0,30.21,West,263,0.0,0.0,86,0.00,,,0.06,weatherlink.com 1.10,2013-10-31 03:37:00,
2013-10-30 23:52:00,27.6,24.0,30.21,West,263,0.0,0.0,87,0.00,,,0.06,weatherlink.com 1.10,2013-10-31 03:52:00,